Time;durP1;ratioP1;P1;durP2;ratioP2;P2;SDS_P1;SDS_P2;PMS_P1;PMS_P2;Temp;Humidity;BMP_temperature;BMP_pressure;BME280_temperature;BME280_humidity;BME280_pressure;Samples;Min_cycle;Max_cycle;Signal;HPM_P1;HPM_P2
2023/01/13 00:00:46;;;;;;;0.00;0.00;;;;;;;9.09;67.86;95299.63;4381998;32;20280;-62
2023/01/13 00:03:11;;;;;;;0.00;0.00;;;;;;;9.08;68.12;95302.53;4390245;32;20196;-62
2023/01/13 00:05:37;;;;;;;0.20;0.20;;;;;;;9.21;67.50;95304.47;4387061;32;20208;-62
2023/01/13 00:08:05;;;;;;;0.47;0.30;;;;;;;9.16;67.60;95299.25;4357715;32;20250;-62
2023/01/13 00:10:31;;;;;;;4.03;0.80;;;;;;;9.08;68.03;95305.19;4345751;32;20307;-62
2023/01/13 00:12:58;;;;;;;0.80;0.40;;;;;;;9.05;67.73;95303.09;4383065;32;20351;-62
2023/01/13 00:15:24;;;;;;;0.30;0.23;;;;;;;9.14;68.50;95288.19;4382361;32;20297;-62
2023/01/13 00:17:49;;;;;;;0.10;0.10;;;;;;;9.22;67.41;95288.31;4382436;32;20196;-63
2023/01/13 00:20:15;;;;;;;0.00;0.00;;;;;;;9.18;68.44;95276.72;4367959;32;20196;-62
2023/01/13 00:22:40;;;;;;;0.17;0.13;;;;;;;9.08;68.03;95265.50;4390704;32;20192;-62
2023/01/13 00:25:06;;;;;;;0.33;0.33;;;;;;;9.19;68.75;95278.28;4375872;32;20208;-63
2023/01/13 00:27:32;;;;;;;2.37;0.40;;;;;;;9.21;67.99;95278.00;4385507;32;20300;-63
2023/01/13 00:29:58;;;;;;;0.00;0.00;;;;;;;9.12;68.51;95271.81;4389933;32;20192;-62
2023/01/13 00:32:23;;;;;;;1.40;0.23;;;;;;;9.17;68.76;95263.78;4368430;32;20188;-62
2023/01/13 00:34:49;;;;;;;0.00;0.00;;;;;;;9.07;68.49;95262.06;4361675;32;20203;-63
2023/01/13 00:37:14;;;;;;;0.10;0.10;;;;;;;9.08;68.58;95260.19;4382944;32;20193;-63
2023/01/13 00:39:40;;;;;;;0.03;0.03;;;;;;;9.09;68.87;95254.63;4389947;32;20189;-63
2023/01/13 00:44:50;;;;;;;0.03;0.03;;;;;;;9.18;68.26;95260.06;4375726;32;20241;-62
2023/01/13 00:47:15;;;;;;;0.00;0.00;;;;;;;9.18;68.33;95255.56;4383412;32;20284;-63
2023/01/13 00:49:42;;;;;;;0.40;0.20;;;;;;;9.27;68.56;95253.84;4387402;32;20215;-63
2023/01/13 00:52:08;;;;;;;0.43;0.20;;;;;;;9.22;67.71;95253.91;4381272;32;20185;-62
2023/01/13 00:54:33;;;;;;;0.17;0.17;;;;;;;9.22;68.13;95251.25;4372126;32;20280;-62
2023/01/13 00:57:00;;;;;;;0.10;0.10;;;;;;;9.26;68.15;95252.28;4374317;32;20197;-62
2023/01/13 00:59:25;;;;;;;1.17;0.13;;;;;;;9.35;68.29;95249.00;4361965;32;20205;-62
2023/01/13 01:01:50;;;;;;;0.10;0.10;;;;;;;9.26;67.93;95246.97;4373723;32;20287;-62
2023/01/13 01:04:15;;;;;;;1.70;0.20;;;;;;;9.13;68.07;95255.63;4373344;32;20242;-62
2023/01/13 01:06:41;;;;;;;4.90;0.23;;;;;;;9.20;68.13;95257.91;4340972;32;20258;-62
2023/01/13 01:09:06;;;;;;;0.20;0.20;;;;;;;9.08;68.59;95261.00;4369658;32;20193;-62
2023/01/13 01:11:32;;;;;;;0.10;0.10;;;;;;;9.08;68.20;95260.19;4392863;32;20274;-62
2023/01/13 01:14:00;;;;;;;0.00;0.00;;;;;;;9.15;68.41;95248.19;4387249;32;20200;-62
2023/01/13 01:16:30;;;;;;;0.00;0.00;;;;;;;9.21;68.12;95260.28;4382049;32;20204;-62
2023/01/13 01:18:58;;;;;;;0.10;0.10;;;;;;;9.22;68.94;95245.97;4372622;32;20323;-62
2023/01/13 01:21:26;;;;;;;0.00;0.00;;;;;;;9.41;67.25;95243.31;4336539;32;20331;-62
2023/01/13 01:23:52;;;;;;;0.20;0.20;;;;;;;9.26;67.17;95248.84;4360928;32;20345;-62
2023/01/13 01:26:21;;;;;;;0.37;0.30;;;;;;;9.25;68.17;95245.41;4374337;32;20295;-62
2023/01/13 01:28:47;;;;;;;0.10;0.10;;;;;;;9.40;66.81;95246.25;4352423;32;20277;-62
2023/01/13 01:31:24;;;;;;;0.00;0.00;;;;;;;9.22;66.76;95247.81;4364574;32;20331;-62
2023/01/13 01:33:50;;;;;;;0.00;0.00;;;;;;;9.23;66.98;95233.53;4376768;32;20192;-63
2023/01/13 01:36:17;;;;;;;0.00;0.00;;;;;;;9.34;66.22;95248.19;4381331;32;20303;-62
2023/01/13 01:38:44;;;;;;;0.10;0.10;;;;;;;9.32;65.97;95242.41;4386127;32;20236;-62
2023/01/13 01:41:21;;;;;;;0.00;0.00;;;;;;;9.44;65.64;95242.75;4387677;32;20292;-62
2023/01/13 01:43:58;;;;;;;0.00;0.00;;;;;;;9.40;65.88;95241.75;4346982;32;20335;-62
2023/01/13 01:46:26;;;;;;;0.00;0.00;;;;;;;9.43;65.86;95241.16;4354847;32;20531;-62
2023/01/13 01:48:55;;;;;;;0.20;0.07;;;;;;;9.28;66.08;95239.53;4369228;32;20268;-62
2023/01/13 01:51:20;;;;;;;0.00;0.00;;;;;;;9.22;66.48;95232.75;4364628;32;20314;-62
2023/01/13 01:53:46;;;;;;;0.00;0.00;;;;;;;9.43;65.82;95235.88;4387828;32;20288;-62
2023/01/13 01:56:12;;;;;;;0.20;0.20;;;;;;;9.34;66.53;95242.91;4379328;32;20245;-63
2023/01/13 01:58:48;;;;;;;0.00;0.00;;;;;;;9.52;66.16;95234.16;4371134;32;20303;-62
2023/01/13 02:01:14;;;;;;;0.20;0.20;;;;;;;9.54;64.66;95228.59;4372995;32;20202;-62
2023/01/13 02:03:45;;;;;;;0.20;0.20;;;;;;;9.62;65.09;95223.41;4379462;32;20280;-62
2023/01/13 02:06:12;;;;;;;0.10;0.10;;;;;;;9.60;64.67;95220.25;4380681;32;20252;-62
2023/01/13 02:08:39;;;;;;;0.00;0.00;;;;;;;9.65;64.60;95214.87;4377170;32;20232;-62
2023/01/13 02:12:28;;;;;;;0.03;0.03;;;;;;;9.73;64.02;95210.00;4370880;32;20220;-62
2023/01/13 02:13:51;;;;;;;0.00;0.00;;;;;;;9.74;63.95;95207.06;4385546;32;20203;-62
2023/01/13 02:16:22;;;;;;;0.27;0.27;;;;;;;9.71;64.25;95204.22;4374498;32;20300;-62
2023/01/13 02:19:16;;;;;;;0.00;0.00;;;;;;;9.62;64.48;95202.22;4377948;32;20192;-62
2023/01/13 02:22:32;;;;;;;0.30;0.27;;;;;;;9.65;64.03;95198.97;4346460;32;20322;-62
2023/01/13 02:25:16;;;;;;;0.00;0.00;;;;;;;9.84;62.80;95200.78;4345130;32;20198;-62
2023/01/13 02:28:01;;;;;;;0.20;0.20;;;;;;;9.92;62.72;95194.84;4362037;32;20275;-65
2023/01/13 02:33:28;;;;;;;0.00;0.00;;;;;;;9.84;63.17;95184.91;4375894;32;20218;-62
2023/01/13 02:35:53;;;;;;;0.00;0.00;;;;;;;9.79;63.61;95184.97;4324045;32;20244;-62
2023/01/13 02:38:26;;;;;;;0.10;0.10;;;;;;;9.84;62.63;95179.59;4366834;32;20192;-62
2023/01/13 02:44:19;;;;;;;0.40;0.20;;;;;;;9.87;62.13;95176.37;4371681;32;20242;-63
2023/01/13 02:46:55;;;;;;;0.00;0.00;;;;;;;9.75;61.92;95178.72;4379122;32;20204;-63
2023/01/13 02:49:29;;;;;;;0.00;0.00;;;;;;;9.80;62.40;95170.66;4356174;32;20231;-63
2023/01/13 02:52:01;;;;;;;0.10;0.10;;;;;;;9.78;62.89;95172.81;4390540;32;20187;-63
2023/01/13 02:54:29;;;;;;;0.27;0.27;;;;;;;9.72;62.35;95179.28;4376719;32;20196;-63
2023/01/13 02:56:57;;;;;;;0.00;0.00;;;;;;;9.76;62.11;95178.44;4374138;32;20210;-63
2023/01/13 02:59:25;;;;;;;0.50;0.30;;;;;;;9.76;62.87;95175.00;4365310;32;20228;-62
2023/01/13 03:01:53;;;;;;;0.00;0.00;;;;;;;9.74;62.29;95169.97;4357946;32;20189;-63
2023/01/13 03:05:06;;;;;;;0.90;0.33;;;;;;;9.90;62.49;95159.91;4371968;32;20188;-63
2023/01/13 03:07:52;;;;;;;0.00;0.00;;;;;;;9.85;62.33;95159.97;4355837;32;23460;-63
2023/01/13 03:10:57;;;;;;;0.00;0.00;;;;;;;9.73;62.22;95155.16;4356173;32;20207;-62
2023/01/13 03:13:51;;;;;;;0.20;0.20;;;;;;;9.83;62.17;95151.53;4348375;32;20195;-62
2023/01/13 03:16:27;;;;;;;0.00;0.00;;;;;;;9.89;62.63;95153.03;4345153;32;20252;-62
2023/01/13 03:19:14;;;;;;;0.00;0.00;;;;;;;9.80;62.37;95142.31;4356081;32;20250;-63
2023/01/13 03:22:00;;;;;;;0.03;0.03;;;;;;;9.76;62.93;95132.59;4357615;32;20207;-63
2023/01/13 03:25:18;;;;;;;0.00;0.00;;;;;;;9.74;63.61;95132.91;4337857;32;20227;-63
2023/01/13 03:27:53;;;;;;;0.00;0.00;;;;;;;9.81;62.97;95135.16;4321763;32;20352;-63
2023/01/13 03:30:32;;;;;;;0.00;0.00;;;;;;;9.86;62.76;95135.06;4343402;32;20224;-62
2023/01/13 03:33:14;;;;;;;0.00;0.00;;;;;;;9.84;62.98;95123.97;4347245;32;20189;-62
2023/01/13 03:35:43;;;;;;;0.00;0.00;;;;;;;9.87;62.18;95128.69;4361360;32;20208;-63
2023/01/13 03:38:20;;;;;;;0.03;0.03;;;;;;;9.86;63.21;95132.41;4363832;32;20269;-62
2023/01/13 03:40:58;;;;;;;0.10;0.10;;;;;;;9.84;63.31;95137.22;4372519;32;20193;-63
2023/01/13 03:46:25;;;;;;;0.00;0.00;;;;;;;9.94;63.46;95131.75;4330932;32;20306;-62
2023/01/13 03:48:55;;;;;;;0.40;0.37;;;;;;;9.71;62.27;95145.94;4333739;32;20185;-62
2023/01/13 03:51:23;;;;;;;0.17;0.17;;;;;;;9.71;62.53;95148.59;4373037;32;20209;-62
2023/01/13 03:53:56;;;;;;;0.10;0.10;;;;;;;9.74;62.60;95137.41;4363155;32;20185;-63
2023/01/13 03:56:46;;;;;;;0.00;0.00;;;;;;;9.72;62.89;95131.63;4374430;32;20209;-62
2023/01/13 03:59:18;;;;;;;0.07;0.07;;;;;;;9.60;62.87;95135.50;4350849;32;20229;-62
2023/01/13 04:01:58;;;;;;;0.23;0.20;;;;;;;9.55;63.79;95132.97;4352779;32;20232;-63
2023/01/13 04:04:40;;;;;;;0.00;0.00;;;;;;;9.50;64.49;95132.25;4358183;32;20232;-62
2023/01/13 04:07:31;;;;;;;0.00;0.00;;;;;;;9.50;63.99;95124.31;4387298;32;20235;-63
2023/01/13 04:10:01;;;;;;;0.00;0.00;;;;;;;9.70;63.64;95123.16;4373044;32;20270;-63
2023/01/13 04:12:59;;;;;;;0.00;0.00;;;;;;;9.67;62.65;95124.53;4374722;32;20208;-63
2023/01/13 04:15:18;;;;;;;0.00;0.00;;;;;;;9.70;62.56;95125.81;4377481;32;20192;-63
2023/01/13 04:17:43;;;;;;;0.10;0.10;;;;;;;9.68;62.51;95117.38;4387940;32;20219;-63
2023/01/13 04:20:09;;;;;;;0.30;0.20;;;;;;;9.77;62.24;95113.00;4382377;32;20184;-62
2023/01/13 04:22:34;;;;;;;0.00;0.00;;;;;;;9.83;60.83;95119.75;4359652;32;20192;-62
2023/01/13 04:25:00;;;;;;;0.00;0.00;;;;;;;9.72;60.79;95121.03;4375659;32;20227;-63
2023/01/13 04:27:25;;;;;;;0.13;0.13;;;;;;;9.83;60.72;95117.09;4366258;32;20200;-62
2023/01/13 04:29:50;;;;;;;0.00;0.00;;;;;;;9.85;59.67;95120.25;4376136;32;20193;-62
2023/01/13 04:32:16;;;;;;;0.10;0.10;;;;;;;9.85;59.46;95122.87;4383136;32;20196;-63
2023/01/13 04:34:41;;;;;;;0.00;0.00;;;;;;;9.76;59.61;95122.78;4347792;32;20240;-62
2023/01/13 04:37:06;;;;;;;0.10;0.10;;;;;;;9.73;59.89;95110.13;4374331;32;20184;-62
2023/01/13 04:39:31;;;;;;;0.00;0.00;;;;;;;9.83;60.44;95111.78;4388374;32;20272;-62
2023/01/13 04:41:57;;;;;;;0.70;0.50;;;;;;;9.88;59.45;95114.34;4389157;32;20188;-62
2023/01/13 04:44:22;;;;;;;0.00;0.00;;;;;;;9.97;59.60;95108.09;4387140;32;20184;-62
2023/01/13 04:46:47;;;;;;;0.00;0.00;;;;;;;9.96;58.66;95095.13;4355851;32;20235;-62
2023/01/13 04:49:13;;;;;;;0.07;0.07;;;;;;;9.96;58.55;95111.03;4334461;32;20252;-63
2023/01/13 04:51:38;;;;;;;0.00;0.00;;;;;;;9.94;58.55;95103.38;4371455;32;20189;-62
2023/01/13 04:54:04;;;;;;;0.00;0.00;;;;;;;9.93;58.68;95093.88;4373861;32;20197;-63
2023/01/13 04:56:29;;;;;;;0.00;0.00;;;;;;;10.00;59.25;95096.09;4385080;32;20220;-62
2023/01/13 04:58:54;;;;;;;0.00;0.00;;;;;;;9.98;58.82;95098.25;4374855;32;20184;-62
2023/01/13 05:01:20;;;;;;;0.00;0.00;;;;;;;10.02;58.56;95086.00;4369340;32;20188;-63
2023/01/13 05:03:45;;;;;;;0.20;0.20;;;;;;;10.05;58.65;95087.28;4388539;32;20192;-63
2023/01/13 05:06:11;;;;;;;0.00;0.00;;;;;;;10.11;58.44;95092.19;4390536;32;20249;-62
2023/01/13 05:08:36;;;;;;;0.00;0.00;;;;;;;10.12;58.30;95083.16;4373347;32;20189;-62
2023/01/13 05:16:58;;;;;;;0.00;0.00;;;;;;;10.11;58.29;95086.88;4379676;32;20268;-63
2023/01/13 05:19:14;;;;;;;0.00;0.00;;;;;;;10.21;58.50;95094.66;4381677;32;20298;-63
2023/01/13 05:27:08;;;;;;;0.03;0.03;;;;;;;10.18;59.56;95097.09;4359860;32;20324;-63
2023/01/13 05:29:33;;;;;;;0.03;0.03;;;;;;;10.20;59.21;95089.62;4357215;32;20328;-62
2023/01/13 05:32:01;;;;;;;0.00;0.00;;;;;;;10.23;59.12;95081.09;4345729;32;20239;-62
2023/01/13 05:34:26;;;;;;;0.00;0.00;;;;;;;10.25;59.47;95087.69;4358118;32;20239;-62
2023/01/13 05:36:52;;;;;;;0.07;0.07;;;;;;;10.29;58.92;95093.97;4322334;32;20338;-62
2023/01/13 05:39:17;;;;;;;0.00;0.00;;;;;;;10.16;59.32;95086.00;4371610;32;20192;-63
2023/01/13 05:44:27;;;;;;;0.30;0.30;;;;;;;10.28;59.53;95091.59;4338714;32;20257;-62
2023/01/13 05:46:52;;;;;;;0.00;0.00;;;;;;;10.33;58.50;95081.69;4369250;32;20200;-62
2023/01/13 05:49:17;;;;;;;0.20;0.20;;;;;;;10.32;58.86;95092.59;4334949;32;20297;-63
2023/01/13 05:51:43;;;;;;;0.73;0.30;;;;;;;10.30;58.53;95095.53;4345991;32;20260;-63
2023/01/13 05:54:08;;;;;;;0.00;0.00;;;;;;;10.49;58.24;95087.44;4382955;32;20200;-62
2023/01/13 05:56:33;;;;;;;0.17;0.17;;;;;;;10.37;58.60;95089.84;4387857;32;20192;-63
2023/01/13 05:58:59;;;;;;;0.00;0.00;;;;;;;10.43;58.21;95075.38;4345819;32;20227;-63
2023/01/13 06:01:24;;;;;;;0.53;0.50;;;;;;;10.41;59.17;95082.06;4361805;32;20235;-61
2023/01/13 06:03:49;;;;;;;0.00;0.00;;;;;;;10.37;58.91;95070.50;4386213;32;20192;-63
2023/01/13 06:06:15;;;;;;;0.10;0.10;;;;;;;10.39;59.31;95076.28;4371881;32;20189;-62
2023/01/13 06:08:40;;;;;;;0.00;0.00;;;;;;;10.37;58.84;95089.06;4387109;32;20232;-62
2023/01/13 06:11:06;;;;;;;0.00;0.00;;;;;;;10.50;59.26;95083.72;4386706;32;20192;-62
2023/01/13 06:13:31;;;;;;;0.00;0.00;;;;;;;10.41;59.55;95088.12;4357531;32;20271;-62
2023/01/13 06:15:57;;;;;;;0.13;0.13;;;;;;;10.42;58.82;95088.94;4367461;32;20192;-62
2023/01/13 06:18:22;;;;;;;0.20;0.20;;;;;;;10.48;58.89;95085.09;4370691;32;20188;-62
2023/01/13 06:20:48;;;;;;;2.83;0.30;;;;;;;10.45;59.77;95075.06;4372568;32;20188;-62
2023/01/13 06:23:13;;;;;;;0.10;0.10;;;;;;;10.40;59.84;95078.63;4366961;32;20211;-63
2023/01/13 06:25:57;;;;;;;0.00;0.00;;;;;;;10.37;59.41;95083.75;4339107;32;20333;-62
2023/01/13 06:28:22;;;;;;;0.00;0.00;;;;;;;10.36;60.07;95080.31;4353002;32;20266;-62
2023/01/13 06:30:51;;;;;;;0.10;0.10;;;;;;;10.32;59.67;95087.28;4373623;32;20192;-62
2023/01/13 06:33:28;;;;;;;0.00;0.00;;;;;;;10.39;60.05;95081.59;4357190;32;20204;-62
2023/01/13 06:35:57;;;;;;;2.37;0.60;;;;;;;10.41;60.67;95095.31;4372924;32;20255;-62
2023/01/13 06:38:26;;;;;;;0.00;0.00;;;;;;;10.41;60.71;95098.75;4374096;32;20200;-62
2023/01/13 06:40:52;;;;;;;0.10;0.10;;;;;;;10.47;60.93;95092.25;4353501;32;20239;-62
2023/01/13 06:43:17;;;;;;;0.10;0.10;;;;;;;10.49;60.21;95089.31;4367152;32;20199;-62
2023/01/13 06:45:49;;;;;;;0.00;0.00;;;;;;;10.44;59.96;95089.41;4385546;32;20215;-65
2023/01/13 06:48:16;;;;;;;0.00;0.00;;;;;;;10.47;60.46;95094.13;4366206;32;20211;-62
2023/01/13 06:50:41;;;;;;;0.17;0.17;;;;;;;10.41;60.26;95090.00;4366530;32;20207;-62
2023/01/13 06:53:07;;;;;;;0.60;0.20;;;;;;;10.34;60.87;95095.72;4375393;32;20224;-62
2023/01/13 06:55:33;;;;;;;0.50;0.23;;;;;;;10.39;60.75;95092.97;4355825;32;20296;-62
2023/01/13 06:57:58;;;;;;;0.03;0.03;;;;;;;10.42;60.83;95099.53;4365180;32;20233;-62
2023/01/13 07:00:25;;;;;;;0.00;0.00;;;;;;;10.37;60.48;95100.44;4387050;32;20228;-63
2023/01/13 07:02:50;;;;;;;0.00;0.00;;;;;;;10.45;60.79;95085.69;4386065;32;20187;-63
2023/01/13 07:05:18;;;;;;;0.00;0.00;;;;;;;10.37;60.31;95094.34;4377327;32;20258;-62
2023/01/13 07:07:44;;;;;;;0.00;0.00;;;;;;;10.37;60.91;95105.75;4331190;32;20247;-62
2023/01/13 07:10:12;;;;;;;0.50;0.30;;;;;;;10.35;60.35;95107.13;4344437;32;20335;-62
2023/01/13 07:15:22;;;;;;;0.67;0.00;;;;;;;10.32;60.56;95103.19;4387111;32;20237;-63
2023/01/13 07:17:48;;;;;;;0.00;0.00;;;;;;;10.35;60.52;95099.16;4372932;32;20200;-61
2023/01/13 07:20:14;;;;;;;0.10;0.10;;;;;;;10.27;61.38;95092.69;4362273;32;20374;-62
2023/01/13 07:22:40;;;;;;;0.10;0.10;;;;;;;10.24;60.63;95104.66;4357525;32;20231;-62
2023/01/13 07:25:05;;;;;;;0.03;0.03;;;;;;;10.30;60.53;95106.13;4356757;32;20250;-62
2023/01/13 07:27:31;;;;;;;0.00;0.00;;;;;;;10.24;60.52;95109.97;4367108;32;20210;-62
2023/01/13 07:29:56;;;;;;;12.23;1.47;;;;;;;10.18;60.97;95108.50;4370350;32;20200;-44
2023/01/13 07:32:21;;;;;;;8.03;1.87;;;;;;;10.66;77.94;95105.38;4385130;32;20218;-45
2023/01/13 07:34:47;;;;;;;1.07;0.30;;;;;;;12.22;89.04;95094.63;4372772;32;20250;-47
2023/01/13 07:37:12;;;;;;;5.73;0.80;;;;;;;12.73;75.52;95104.56;4379098;32;20227;-56
2023/01/13 07:39:39;;;;;;;0.20;0.20;;;;;;;13.37;70.47;95104.75;4371457;32;20203;-46
2023/01/13 07:44:48;;;;;;;1.03;0.37;;;;;;;13.79;58.99;95112.19;4378098;32;20218;-46
2023/01/13 07:47:13;;;;;;;0.10;0.10;;;;;;;14.13;61.67;95112.09;4372702;32;20200;-47
2023/01/13 07:49:38;;;;;;;0.30;0.30;;;;;;;14.05;60.89;95112.91;4349821;32;20228;-47
2023/01/13 07:52:04;;;;;;;0.03;0.03;;;;;;;13.91;57.73;95109.66;4373714;32;20209;-43
2023/01/13 07:54:29;;;;;;;0.33;0.33;;;;;;;14.20;57.04;95107.00;4379593;32;20234;-45
2023/01/13 07:56:55;;;;;;;0.20;0.20;;;;;;;14.37;56.21;95116.81;4371754;32;20231;-47
2023/01/13 07:59:21;;;;;;;0.00;0.00;;;;;;;14.24;52.15;95123.16;4383586;32;20188;-60
2023/01/13 08:01:46;;;;;;;1.03;0.47;;;;;;;13.30;49.84;95122.34;4364488;32;20246;-66
2023/01/13 08:04:12;;;;;;;0.10;0.10;;;;;;;12.12;53.29;95124.16;4374281;32;20193;-64
2023/01/13 08:06:40;;;;;;;0.00;0.00;;;;;;;11.50;54.77;95121.47;4373887;32;20207;-60
2023/01/13 08:09:06;;;;;;;0.10;0.10;;;;;;;11.15;56.48;95130.31;4363163;32;20188;-61
2023/01/13 08:11:31;;;;;;;0.00;0.00;;;;;;;11.16;56.22;95131.88;4379100;32;20207;-61
2023/01/13 08:13:57;;;;;;;0.40;0.30;;;;;;;10.76;57.76;95121.09;4365291;32;20237;-61
2023/01/13 08:16:23;;;;;;;0.00;0.00;;;;;;;10.60;58.60;95125.13;4376879;32;20267;-63
2023/01/13 08:18:49;;;;;;;0.40;0.30;;;;;;;10.52;58.70;95124.00;4380474;32;20192;-62
2023/01/13 08:21:14;;;;;;;0.00;0.00;;;;;;;10.48;59.86;95130.19;4376843;32;20228;-61
2023/01/13 08:23:42;;;;;;;0.10;0.10;;;;;;;10.41;59.63;95122.63;4368248;32;20236;-61
2023/01/13 08:26:10;;;;;;;0.00;0.00;;;;;;;10.58;59.79;95129.97;4353913;32;20235;-63
2023/01/13 08:28:36;;;;;;;0.00;0.00;;;;;;;10.56;59.69;95126.84;4357966;32;20220;-69
2023/01/13 08:31:04;;;;;;;0.47;0.17;;;;;;;10.59;59.14;95112.97;4352682;32;20223;-62
2023/01/13 08:33:30;;;;;;;0.10;0.10;;;;;;;10.46;59.25;95114.56;4377294;32;20231;-60
2023/01/13 08:35:57;;;;;;;0.60;0.60;;;;;;;10.57;59.64;95123.09;4386183;32;20196;-67
2023/01/13 08:38:23;;;;;;;0.03;0.03;;;;;;;10.59;59.48;95118.28;4380757;32;20211;-65
2023/01/13 08:40:48;;;;;;;0.13;0.13;;;;;;;10.78;58.79;95118.94;4369978;32;20323;-63
2023/01/13 08:43:14;;;;;;;0.57;0.30;;;;;;;10.87;59.12;95114.47;4373656;32;20185;-63
2023/01/13 08:45:39;;;;;;;0.10;0.10;;;;;;;10.91;58.30;95114.66;4375908;32;20192;-68
2023/01/13 08:48:05;;;;;;;0.10;0.10;;;;;;;10.92;58.62;95111.69;4388123;32;20183;-63
2023/01/13 08:50:30;;;;;;;0.10;0.10;;;;;;;10.95;58.91;95118.28;4383505;32;20268;-58
2023/01/13 08:52:56;;;;;;;0.10;0.10;;;;;;;10.98;59.53;95117.69;4374209;32;20318;-60
2023/01/13 08:55:21;;;;;;;0.37;0.37;;;;;;;11.10;60.48;95122.44;4344618;32;20376;-60
2023/01/13 08:57:46;;;;;;;0.10;0.10;;;;;;;11.05;59.65;95114.59;4381539;32;20212;-61
2023/01/13 09:00:13;;;;;;;3.90;0.33;;;;;;;11.13;59.51;95127.94;4360667;32;20235;-61
2023/01/13 09:02:39;;;;;;;0.57;0.30;;;;;;;11.33;59.19;95121.38;4381659;32;20253;-62
2023/01/13 09:05:06;;;;;;;0.23;0.17;;;;;;;11.00;58.25;95136.75;4374613;32;20196;-61
2023/01/13 09:07:33;;;;;;;0.00;0.00;;;;;;;11.21;58.71;95129.91;4356608;32;20236;-60
2023/01/13 09:10:01;;;;;;;0.10;0.10;;;;;;;11.22;58.56;95125.38;4360784;32;20256;-60
2023/01/13 09:15:11;;;;;;;0.10;0.10;;;;;;;11.32;57.29;95130.41;4360492;32;20206;-60
2023/01/13 09:17:36;;;;;;;0.40;0.40;;;;;;;11.40;57.26;95137.69;4336421;32;20200;-59
2023/01/13 09:20:02;;;;;;;0.17;0.17;;;;;;;11.48;56.93;95136.16;4365680;32;20450;-59
2023/01/13 09:22:28;;;;;;;0.00;0.00;;;;;;;11.36;56.67;95142.03;4359421;32;20197;-60
2023/01/13 09:24:58;;;;;;;0.00;0.00;;;;;;;11.44;57.04;95138.63;4356502;32;20223;-59
2023/01/13 09:27:23;;;;;;;0.00;0.00;;;;;;;11.53;56.82;95138.69;4386620;32;20242;-60
2023/01/13 09:29:49;;;;;;;0.37;0.37;;;;;;;11.61;55.22;95137.97;4387708;32;20192;-60
2023/01/13 09:32:15;;;;;;;0.10;0.10;;;;;;;11.71;55.53;95143.78;4388325;32;20236;-60
2023/01/13 09:34:59;;;;;;;0.30;0.10;;;;;;;11.65;56.93;95139.69;4367508;32;20224;-64
2023/01/13 09:37:26;;;;;;;0.20;0.20;;;;;;;11.74;54.88;95144.28;4343885;32;20271;-64
2023/01/13 09:39:52;;;;;;;0.10;0.10;;;;;;;11.68;57.34;95136.44;4355831;32;20221;-61
2023/01/13 09:45:40;;;;;;;0.10;0.10;;;;;;;11.60;54.48;95153.13;4379837;32;20234;-63
2023/01/13 09:48:15;;;;;;;0.00;0.00;;;;;;;11.69;54.69;95140.66;4368682;32;20239;-64
2023/01/13 09:50:58;;;;;;;12.43;0.33;;;;;;;11.68;54.50;95125.00;4349222;32;20258;-63
2023/01/13 09:53:54;;;;;;;0.03;0.03;;;;;;;11.84;54.63;95128.91;4370921;32;20224;-59
2023/01/13 09:56:21;;;;;;;1.07;0.17;;;;;;;11.83;53.59;95139.84;4364896;32;20207;-60
2023/01/13 09:58:47;;;;;;;0.10;0.10;;;;;;;11.79;54.19;95126.38;4373319;32;20248;-62
2023/01/13 10:01:28;;;;;;;0.20;0.20;;;;;;;11.80;54.18;95129.81;4361337;32;20236;-62
2023/01/13 10:03:55;;;;;;;0.10;0.10;;;;;;;11.97;54.54;95119.25;4357716;32;20255;-61
2023/01/13 10:06:45;;;;;;;0.00;0.00;;;;;;;12.02;55.01;95124.44;4336497;32;20247;-61
2023/01/13 10:09:21;;;;;;;0.10;0.10;;;;;;;12.14;54.92;95114.00;4342398;32;20231;-61
2023/01/13 10:14:54;;;;;;;0.20;0.20;;;;;;;12.16;54.91;95117.13;4386578;32;20211;-59
2023/01/13 10:17:42;;;;;;;0.00;0.00;;;;;;;12.17;53.90;95118.69;4387342;32;20204;-60
2023/01/13 10:20:23;;;;;;;0.10;0.10;;;;;;;12.14;54.63;95108.69;4373885;32;20214;-60
2023/01/13 10:23:13;;;;;;;0.00;0.00;;;;;;;12.08;55.17;95101.91;4348892;32;20236;-67
2023/01/13 10:26:12;;;;;;;0.07;0.07;;;;;;;12.00;54.55;95102.69;4370194;32;20260;-59
2023/01/13 10:28:37;;;;;;;0.00;0.00;;;;;;;12.15;55.68;95104.16;4374010;32;20219;-59
2023/01/13 10:31:10;;;;;;;0.00;0.00;;;;;;;12.21;55.24;95098.38;4386282;32;20287;-59
2023/01/13 10:33:37;;;;;;;0.00;0.00;;;;;;;12.08;54.73;95103.78;4360413;32;20299;-61
2023/01/13 10:36:13;;;;;;;0.00;0.00;;;;;;;12.29;55.51;95094.94;4368998;32;20205;-59
2023/01/13 10:38:39;;;;;;;0.10;0.10;;;;;;;12.22;55.66;95104.50;4378079;32;20189;-59
2023/01/13 10:41:14;;;;;;;0.00;0.00;;;;;;;12.34;58.06;95086.84;4379360;32;20307;-59
2023/01/13 10:44:17;;;;;;;0.10;0.10;;;;;;;12.18;55.41;95098.22;4379690;32;20188;-60
2023/01/13 10:46:54;;;;;;;0.00;0.00;;;;;;;12.31;55.89;95087.44;4380025;32;20211;-64
2023/01/13 10:49:37;;;;;;;1.90;0.33;;;;;;;12.39;55.44;95077.94;4373753;32;20206;-59
2023/01/13 10:52:24;;;;;;;0.30;0.30;;;;;;;12.31;54.88;95081.34;4361173;32;20200;-60
2023/01/13 10:54:51;;;;;;;0.00;0.00;;;;;;;12.24;56.24;95073.84;4382860;32;20192;-62
2023/01/13 10:57:23;;;;;;;0.00;0.00;;;;;;;12.51;55.09;95074.66;4356922;32;20239;-62
2023/01/13 10:59:49;;;;;;;0.00;0.00;;;;;;;12.32;54.81;95078.38;4369882;32;20177;-60
2023/01/13 11:02:17;;;;;;;0.10;0.10;;;;;;;12.34;55.12;95089.50;4373411;32;20231;-64
2023/01/13 11:05:01;;;;;;;0.00;0.00;;;;;;;12.23;55.19;95069.59;4389254;32;20181;-61
2023/01/13 11:07:38;;;;;;;0.00;0.00;;;;;;;12.38;55.73;95071.81;4374981;32;20242;-60
2023/01/13 11:10:22;;;;;;;0.07;0.00;;;;;;;12.27;55.74;95069.75;4345393;32;20379;-60
2023/01/13 11:13:12;;;;;;;0.10;0.10;;;;;;;12.41;57.50;95074.97;4313721;32;20315;-60
2023/01/13 11:15:38;;;;;;;0.07;0.07;;;;;;;12.34;56.08;95081.50;4360689;32;20284;-63
2023/01/13 11:18:23;;;;;;;0.00;0.00;;;;;;;12.37;57.74;95080.91;4359817;32;20287;-59
2023/01/13 11:20:50;;;;;;;0.43;0.40;;;;;;;12.21;58.83;95097.59;4381200;32;20215;-61
2023/01/13 11:23:24;;;;;;;0.00;0.00;;;;;;;12.22;59.90;95089.31;4379461;32;20277;-60
2023/01/13 11:25:58;;;;;;;0.00;0.00;;;;;;;11.92;61.26;95096.25;4373848;32;20205;-63
2023/01/13 11:28:38;;;;;;;0.10;0.10;;;;;;;11.90;63.95;95092.31;4361433;32;20334;-61
2023/01/13 11:31:12;;;;;;;0.00;0.00;;;;;;;11.85;65.63;95085.25;4360124;32;20299;-61
2023/01/13 11:33:49;;;;;;;0.10;0.10;;;;;;;11.86;65.20;95075.41;4368917;32;20195;-60
2023/01/13 11:36:37;;;;;;;0.10;0.10;;;;;;;11.81;65.41;95078.22;4374866;32;20240;-58
2023/01/13 11:39:27;;;;;;;0.00;0.00;;;;;;;11.63;65.50;95080.78;4361453;32;23121;-60
2023/01/13 11:44:48;;;;;;;0.00;0.00;;;;;;;11.87;65.04;95066.34;4350890;32;20277;-59
2023/01/13 11:47:19;;;;;;;0.00;0.00;;;;;;;11.82;63.74;95079.78;4388036;32;20210;-60
2023/01/13 11:49:47;;;;;;;0.00;0.00;;;;;;;11.65;64.25;95081.22;4374400;32;20238;-59
2023/01/13 11:52:31;;;;;;;0.20;0.13;;;;;;;11.75;64.27;95082.84;4384291;32;20239;-60
2023/01/13 11:54:59;;;;;;;0.10;0.10;;;;;;;11.71;64.64;95080.03;4382781;32;20224;-60
2023/01/13 11:57:46;;;;;;;0.00;0.00;;;;;;;11.87;65.62;95074.31;4336494;32;20296;-61
2023/01/13 12:00:50;;;;;;;0.10;0.10;;;;;;;11.82;64.42;95087.75;4360896;32;20246;-58
2023/01/13 12:03:39;;;;;;;2.43;0.23;;;;;;;11.86;64.45;95078.84;4349561;32;20240;-62
2023/01/13 12:06:14;;;;;;;0.10;0.10;;;;;;;11.84;64.42;95088.25;4381011;32;20193;-60
2023/01/13 12:09:01;;;;;;;0.10;0.10;;;;;;;11.99;64.40;95079.84;4378839;32;20192;-60
2023/01/13 12:14:46;;;;;;;0.40;0.13;;;;;;;11.80;64.21;95068.69;4378696;32;20265;-59
2023/01/13 12:17:41;;;;;;;0.23;0.23;;;;;;;11.89;62.94;95091.53;4381766;32;20227;-61
2023/01/13 12:20:31;;;;;;;0.00;0.00;;;;;;;11.83;62.67;95081.38;4357859;32;20205;-59
2023/01/13 12:23:02;;;;;;;0.10;0.10;;;;;;;11.95;63.44;95084.22;4373578;32;20200;-60
2023/01/13 12:25:42;;;;;;;0.00;0.00;;;;;;;11.90;64.17;95092.31;4386721;32;20211;-59
2023/01/13 12:28:49;;;;;;;0.03;0.03;;;;;;;11.81;63.19;95110.13;4375632;32;20225;-59
2023/01/13 12:31:17;;;;;;;1.13;0.30;;;;;;;11.64;63.31;95105.44;4373363;32;20193;-60
2023/01/13 12:34:04;;;;;;;0.47;0.43;;;;;;;11.65;63.61;95097.16;4376740;32;20184;-60
2023/01/13 12:36:51;;;;;;;0.00;0.00;;;;;;;11.60;63.96;95121.25;4360107;32;20205;-59
2023/01/13 12:39:40;;;;;;;0.00;0.00;;;;;;;11.43;63.83;95099.87;4383475;32;20242;-60
2023/01/13 12:45:29;;;;;;;0.00;0.00;;;;;;;11.46;63.93;95115.19;4372078;32;20238;-60